Aérodrome :







RETROUVEZ-NOUS SUR...

 
LOGIN :

S'inscrire | Disclaimer

   EN    FR    IT 

 









Légende :    VFR   VFR Marginal   IFR   IFR Intensif   IFR Très Intensif
Visi : 
Plafond : 
>= 8 km
>= 3000ft
5 à 8 km
1000 à 3000 ft
1500m à 5 km
500 à 1000 ft
800 à 1500m
200 à 500 ft
< 800m
< 200 ft
Symboles :   Orages  Brouillard  Fortes neiges  Fortes précipitations  Vent > 20 kt






- Altitude de l'aérodrome : 461 ft
- Code IATA : YYT


CYYT - St John's Int

DERNIER METAR :
  • 270729Z 15004KT 3SM -DZ BR OVC003 03/03 A3033 RMK SF8 SLP280

METARs EXPIRÉS :
  • 270642Z 14002KT 1/2SM R29/P6000FT/D R16/P6000FT/N -DZ FG VV002 03/02 A3035 RMK FG8 SLP287

TAF AMD TAF CYYT
Valide du 27 à 06h jusqu'au 28 à 06h UTC


270544Z 2706/2806 VRB03KT 3/8SM FG VV002
TEMPO 2706/2712 4SM -DZ BR OVC006
BECMG 2706/2708 24012G22KT
FM271200 24012G22KT P6SM SCT005 BKN012
TEMPO 2712/2718 4SM -DZ BR BKN005 OVC012
BECMG 2712/2714 24015G25KT
FM271800 24020G30KT P6SM SCT008 BKN012
FM272100 23020G30KT P6SM SCT015 BKN030
FM280400 21015G25KT P6SM SCT005 BKN015 RMK NXT FCST BY 271200Z
FIR CZQX / Amérique du Nord



MET'MAP, la Météo Aéronautique d'un coup d'oeil ! - Copyright ORBIFLY Décembre 2007 - Disclaimer

ORBIFLY MET'MAP TEAM :

Programmation & Développement : Alexandra Zaïnal
Sur une idée originale de : Baudouin d'Aumeries
Assistance à la programmation : Marc-Olivier Méhu
Soutien technique & logistique : Manuel Goepfert

Contact : metmap@orbifly.com




SOURCES & CREDITS :

   NOAA